sensor_id;sensor_type;location;lat;lon;timestamp;temperature;humidity
30385;DHT22;17181;51.002;4.096;2023-04-25T05:41:30;8.40;99.90
30385;DHT22;17181;51.002;4.096;2023-04-25T06:07:44;8.50;99.90
30385;DHT22;17181;51.002;4.096;2023-04-25T06:10:10;8.60;99.90
30385;DHT22;17181;51.002;4.096;2023-04-25T08:52:58;10.80;99.90
30385;DHT22;17181;51.002;4.096;2023-04-25T08:55:27;10.90;99.90
30385;DHT22;17181;51.002;4.096;2023-04-25T08:57:59;10.90;99.90
30385;DHT22;17181;51.002;4.096;2023-04-25T09:00:27;10.80;99.90
30385;DHT22;17181;51.002;4.096;2023-04-25T09:02:57;10.70;99.90
30385;DHT22;17181;51.002;4.096;2023-04-25T09:05:23;10.70;99.90
30385;DHT22;17181;51.002;4.096;2023-04-25T09:10:42;10.70;99.90
30385;DHT22;17181;51.002;4.096;2023-04-25T09:13:20;10.80;99.90
30385;DHT22;17181;51.002;4.096;2023-04-25T09:16:10;10.90;99.90
30385;DHT22;17181;51.002;4.096;2023-04-25T09:18:47;11.00;99.90
30385;DHT22;17181;51.002;4.096;2023-04-25T09:21:22;11.10;99.90
30385;DHT22;17181;51.002;4.096;2023-04-25T09:23:49;11.20;99.90
30385;DHT22;17181;51.002;4.096;2023-04-25T09:26:20;11.20;99.90
30385;DHT22;17181;51.002;4.096;2023-04-25T09:28:47;11.20;99.90
30385;DHT22;17181;51.002;4.096;2023-04-25T09:31:22;11.20;99.90
30385;DHT22;17181;51.002;4.096;2023-04-25T09:34:01;11.20;99.90
30385;DHT22;17181;51.002;4.096;2023-04-25T09:36:30;11.50;99.90
30385;DHT22;17181;51.002;4.096;2023-04-25T09:39:17;11.30;99.90
30385;DHT22;17181;51.002;4.096;2023-04-25T09:41:54;11.70;99.90
30385;DHT22;17181;51.002;4.096;2023-04-25T09:44:23;11.60;99.90
30385;DHT22;17181;51.002;4.096;2023-04-25T09:46:51;11.70;99.90
30385;DHT22;17181;51.002;4.096;2023-04-25T09:49:23;11.80;99.90
30385;DHT22;17181;51.002;4.096;2023-04-25T09:52:00;12.10;99.90
30385;DHT22;17181;51.002;4.096;2023-04-25T09:54:39;11.90;99.90
30385;DHT22;17181;51.002;4.096;2023-04-25T09:57:19;11.90;99.90
30385;DHT22;17181;51.002;4.096;2023-04-25T09:59:53;11.80;99.50
30385;DHT22;17181;51.002;4.096;2023-04-25T10:02:26;11.80;99.60
30385;DHT22;17181;51.002;4.096;2023-04-25T10:04:55;11.60;99.10
30385;DHT22;17181;51.002;4.096;2023-04-25T10:07:34;11.40;98.90
30385;DHT22;17181;51.002;4.096;2023-04-25T10:10:06;11.20;99.40
30385;DHT22;17181;51.002;4.096;2023-04-25T10:12:35;11.00;99.60
30385;DHT22;17181;51.002;4.096;2023-04-25T10:15:03;10.80;99.90
30385;DHT22;17181;51.002;4.096;2023-04-25T10:17:30;10.70;99.90
30385;DHT22;17181;51.002;4.096;2023-04-25T10:19:57;10.70;99.90
30385;DHT22;17181;51.002;4.096;2023-04-25T10:25:16;10.70;99.90
30385;DHT22;17181;51.002;4.096;2023-04-25T10:27:42;10.60;99.90
30385;DHT22;17181;51.002;4.096;2023-04-25T10:35:39;10.50;99.90
30385;DHT22;17181;51.002;4.096;2023-04-25T10:38:09;10.40;99.90
30385;DHT22;17181;51.002;4.096;2023-04-25T10:40:37;10.30;99.90
30385;DHT22;17181;51.002;4.096;2023-04-25T10:45:59;10.00;99.90
30385;DHT22;17181;51.002;4.096;2023-04-25T10:48:30;10.00;99.90
30385;DHT22;17181;51.002;4.096;2023-04-25T10:51:10;9.90;99.90
30385;DHT22;17181;51.002;4.096;2023-04-25T10:53:36;9.90;99.90
30385;DHT22;17181;51.002;4.096;2023-04-25T10:56:17;10.00;99.90
30385;DHT22;17181;51.002;4.096;2023-04-25T10:58:44;10.10;99.90
30385;DHT22;17181;51.002;4.096;2023-04-25T11:01:12;10.20;99.90
30385;DHT22;17181;51.002;4.096;2023-04-25T11:03:43;10.40;99.90
30385;DHT22;17181;51.002;4.096;2023-04-25T11:06:46;10.50;99.90
30385;DHT22;17181;51.002;4.096;2023-04-25T11:09:10;10.60;99.90
30385;DHT22;17181;51.002;4.096;2023-04-25T11:11:39;10.80;99.90
30385;DHT22;17181;51.002;4.096;2023-04-25T11:14:05;11.00;99.90
30385;DHT22;17181;51.002;4.096;2023-04-25T11:16:31;11.30;99.90
30385;DHT22;17181;51.002;4.096;2023-04-25T11:18:58;11.40;99.90
30385;DHT22;17181;51.002;4.096;2023-04-25T11:21:27;11.50;99.20
30385;DHT22;17181;51.002;4.096;2023-04-25T11:23:55;11.50;99.30
30385;DHT22;17181;51.002;4.096;2023-04-25T11:26:22;11.50;99.10
30385;DHT22;17181;51.002;4.096;2023-04-25T11:28:49;11.50;99.00
30385;DHT22;17181;51.002;4.096;2023-04-25T11:31:15;11.60;99.20
30385;DHT22;17181;51.002;4.096;2023-04-25T11:33:41;11.60;98.80
30385;DHT22;17181;51.002;4.096;2023-04-25T11:36:08;11.70;98.50
30385;DHT22;17181;51.002;4.096;2023-04-25T11:38:34;11.70;98.90
30385;DHT22;17181;51.002;4.096;2023-04-25T11:41:00;11.70;99.00
30385;DHT22;17181;51.002;4.096;2023-04-25T11:43:26;11.70;99.30
30385;DHT22;17181;51.002;4.096;2023-04-25T11:45:53;11.80;98.60
30385;DHT22;17181;51.002;4.096;2023-04-25T11:48:19;11.70;98.70
30385;DHT22;17181;51.002;4.096;2023-04-25T11:50:46;11.90;98.30
30385;DHT22;17181;51.002;4.096;2023-04-25T11:53:11;11.90;98.30
30385;DHT22;17181;51.002;4.096;2023-04-25T11:55:38;12.00;97.90
30385;DHT22;17181;51.002;4.096;2023-04-25T11:58:05;12.10;97.40
30385;DHT22;17181;51.002;4.096;2023-04-25T12:00:32;12.30;96.60
30385;DHT22;17181;51.002;4.096;2023-04-25T12:02:58;12.40;96.70
30385;DHT22;17181;51.002;4.096;2023-04-25T12:05:27;12.60;94.10
30385;DHT22;17181;51.002;4.096;2023-04-25T12:07:53;12.60;94.80
30385;DHT22;17181;51.002;4.096;2023-04-25T12:10:19;12.80;95.40
30385;DHT22;17181;51.002;4.096;2023-04-25T12:12:46;12.80;95.10
30385;DHT22;17181;51.002;4.096;2023-04-25T12:15:18;12.80;94.20
30385;DHT22;17181;51.002;4.096;2023-04-25T12:17:47;12.80;92.70
30385;DHT22;17181;51.002;4.096;2023-04-25T12:20:16;12.60;93.20
30385;DHT22;17181;51.002;4.096;2023-04-25T12:22:44;12.40;93.50
30385;DHT22;17181;51.002;4.096;2023-04-25T13:29:45;12.10;93.20
30385;DHT22;17181;51.002;4.096;2023-04-25T13:32:11;12.20;93.30
30385;DHT22;17181;51.002;4.096;2023-04-25T13:34:37;12.30;93.40
30385;DHT22;17181;51.002;4.096;2023-04-25T13:37:03;12.70;93.80
30385;DHT22;17181;51.002;4.096;2023-04-25T13:39:29;13.00;93.40
30385;DHT22;17181;51.002;4.096;2023-04-25T13:41:55;13.10;93.10
30385;DHT22;17181;51.002;4.096;2023-04-25T13:44:24;13.20;92.90
30385;DHT22;17181;51.002;4.096;2023-04-25T13:46:50;13.10;92.20
30385;DHT22;17181;51.002;4.096;2023-04-25T13:49:19;13.10;92.10
30385;DHT22;17181;51.002;4.096;2023-04-25T13:51:45;13.00;92.20
30385;DHT22;17181;51.002;4.096;2023-04-25T13:54:18;13.00;92.50
30385;DHT22;17181;51.002;4.096;2023-04-25T13:59:37;13.60;93.00
30385;DHT22;17181;51.002;4.096;2023-04-25T14:02:03;14.30;92.90
30385;DHT22;17181;51.002;4.096;2023-04-25T14:04:32;14.80;92.20
30385;DHT22;17181;51.002;4.096;2023-04-25T14:09:48;14.70;90.80
30385;DHT22;17181;51.002;4.096;2023-04-25T14:12:16;14.50;90.90
30385;DHT22;17181;51.002;4.096;2023-04-25T14:14:43;14.20;90.50
30385;DHT22;17181;51.002;4.096;2023-04-25T14:19:58;14.10;90.40
30385;DHT22;17181;51.002;4.096;2023-04-25T14:22:24;13.90;90.10
30385;DHT22;17181;51.002;4.096;2023-04-25T14:27:28;13.80;89.60
30385;DHT22;17181;51.002;4.096;2023-04-25T14:29:56;13.70;89.70
30385;DHT22;17181;51.002;4.096;2023-04-25T14:32:22;13.80;90.20
30385;DHT22;17181;51.002;4.096;2023-04-25T14:34:49;14.00;90.80
30385;DHT22;17181;51.002;4.096;2023-04-25T14:37:16;14.80;89.70
30385;DHT22;17181;51.002;4.096;2023-04-25T14:39:41;15.50;88.60
30385;DHT22;17181;51.002;4.096;2023-04-25T14:42:07;16.10;87.80
30385;DHT22;17181;51.002;4.096;2023-04-25T14:44:33;16.70;85.10
30385;DHT22;17181;51.002;4.096;2023-04-25T14:46:59;17.00;85.40
30385;DHT22;17181;51.002;4.096;2023-04-25T14:49:27;17.50;80.70
30385;DHT22;17181;51.002;4.096;2023-04-25T14:51:54;17.90;76.50
30385;DHT22;17181;51.002;4.096;2023-04-25T14:54:20;18.10;78.30
30385;DHT22;17181;51.002;4.096;2023-04-25T14:56:46;18.10;71.20
30385;DHT22;17181;51.002;4.096;2023-04-25T14:59:18;17.80;70.40
30385;DHT22;17181;51.002;4.096;2023-04-25T15:01:46;17.20;71.80
30385;DHT22;17181;51.002;4.096;2023-04-25T15:04:12;16.80;73.60
30385;DHT22;17181;51.002;4.096;2023-04-25T15:06:38;16.90;73.90
30385;DHT22;17181;51.002;4.096;2023-04-25T15:09:04;17.30;71.80
30385;DHT22;17181;51.002;4.096;2023-04-25T15:11:30;17.80;72.20
30385;DHT22;17181;51.002;4.096;2023-04-25T15:13:56;18.10;69.50
30385;DHT22;17181;51.002;4.096;2023-04-25T15:16:23;18.40;65.80
30385;DHT22;17181;51.002;4.096;2023-04-25T15:18:49;18.40;61.50
30385;DHT22;17181;51.002;4.096;2023-04-25T15:21:15;18.30;61.50
30385;DHT22;17181;51.002;4.096;2023-04-25T15:23:41;17.90;59.60
30385;DHT22;17181;51.002;4.096;2023-04-25T15:26:08;17.80;61.80
30385;DHT22;17181;51.002;4.096;2023-04-25T15:28:34;17.80;60.70
30385;DHT22;17181;51.002;4.096;2023-04-25T15:31:00;17.80;60.10
30385;DHT22;17181;51.002;4.096;2023-04-25T15:33:28;17.90;60.50
30385;DHT22;17181;51.002;4.096;2023-04-25T15:35:54;18.10;61.50
30385;DHT22;17181;51.002;4.096;2023-04-25T15:38:21;18.00;61.10
30385;DHT22;17181;51.002;4.096;2023-04-25T15:40:47;18.10;62.60
30385;DHT22;17181;51.002;4.096;2023-04-25T15:43:13;18.30;58.50
30385;DHT22;17181;51.002;4.096;2023-04-25T15:45:41;18.40;56.70
30385;DHT22;17181;51.002;4.096;2023-04-25T15:48:07;18.40;59.00
30385;DHT22;17181;51.002;4.096;2023-04-25T15:50:33;18.40;60.40
30385;DHT22;17181;51.002;4.096;2023-04-25T15:53:03;18.50;61.00
30385;DHT22;17181;51.002;4.096;2023-04-25T15:55:29;18.50;61.30
30385;DHT22;17181;51.002;4.096;2023-04-25T15:57:55;18.50;61.60
30385;DHT22;17181;51.002;4.096;2023-04-25T16:00:21;18.00;60.90
30385;DHT22;17181;51.002;4.096;2023-04-25T16:02:47;17.20;61.30
30385;DHT22;17181;51.002;4.096;2023-04-25T16:05:14;16.40;62.20
30385;DHT22;17181;51.002;4.096;2023-04-25T16:07:40;15.80;63.40
30385;DHT22;17181;51.002;4.096;2023-04-25T16:10:09;15.30;64.20
30385;DHT22;17181;51.002;4.096;2023-04-25T16:12:36;14.90;64.90
30385;DHT22;17181;51.002;4.096;2023-04-25T16:15:03;14.50;65.40
30385;DHT22;17181;51.002;4.096;2023-04-25T16:17:29;14.00;65.70
30385;DHT22;17181;51.002;4.096;2023-04-25T16:19:59;13.80;66.30
30385;DHT22;17181;51.002;4.096;2023-04-25T16:22:38;13.40;66.70
30385;DHT22;17181;51.002;4.096;2023-04-25T16:30:57;12.60;68.10
30385;DHT22;17181;51.002;4.096;2023-04-25T16:33:23;12.50;68.70
30385;DHT22;17181;51.002;4.096;2023-04-25T16:41:30;12.10;69.60
30385;DHT22;17181;51.002;4.096;2023-04-25T16:43:56;12.00;70.10
30385;DHT22;17181;51.002;4.096;2023-04-25T16:46:28;12.00;70.70
30385;DHT22;17181;51.002;4.096;2023-04-25T16:48:55;11.90;70.70
30385;DHT22;17181;51.002;4.096;2023-04-25T18:30:49;9.70;77.50
30385;DHT22;17181;51.002;4.096;2023-04-25T18:33:15;9.60;77.90
30385;DHT22;17181;51.002;4.096;2023-04-25T18:35:41;9.60;78.10
30385;DHT22;17181;51.002;4.096;2023-04-25T18:38:07;9.50;78.40
30385;DHT22;17181;51.002;4.096;2023-04-25T18:40:33;9.50;78.60
30385;DHT22;17181;51.002;4.096;2023-04-25T18:51:27;9.30;79.10
30385;DHT22;17181;51.002;4.096;2023-04-25T18:53:59;9.20;79.40
30385;DHT22;17181;51.002;4.096;2023-04-25T18:56:26;9.10;80.20
30385;DHT22;17181;51.002;4.096;2023-04-25T18:58:53;9.10;79.70
30385;DHT22;17181;51.002;4.096;2023-04-25T19:01:23;9.00;79.90
30385;DHT22;17181;51.002;4.096;2023-04-25T19:03:50;9.00;80.10
30385;DHT22;17181;51.002;4.096;2023-04-25T19:06:25;8.90;80.30
30385;DHT22;17181;51.002;4.096;2023-04-25T19:08:56;8.80;80.20
30385;DHT22;17181;51.002;4.096;2023-04-25T19:11:22;8.80;80.50
30385;DHT22;17181;51.002;4.096;2023-04-25T19:13:49;8.80;80.70
30385;DHT22;17181;51.002;4.096;2023-04-25T19:16:15;8.70;80.80
30385;DHT22;17181;51.002;4.096;2023-04-25T19:18:47;8.60;80.90
30385;DHT22;17181;51.002;4.096;2023-04-25T19:21:17;8.50;81.10
30385;DHT22;17181;51.002;4.096;2023-04-25T19:23:43;8.40;81.30
30385;DHT22;17181;51.002;4.096;2023-04-25T19:26:09;8.50;81.60
30385;DHT22;17181;51.002;4.096;2023-04-25T19:28:35;8.40;81.60
30385;DHT22;17181;51.002;4.096;2023-04-25T19:31:01;8.30;81.90
30385;DHT22;17181;51.002;4.096;2023-04-25T19:33:27;8.30;82.10
30385;DHT22;17181;51.002;4.096;2023-04-25T19:35:53;8.20;82.30
30385;DHT22;17181;51.002;4.096;2023-04-25T19:38:19;8.20;82.50
